Time;durP1;ratioP1;P1;durP2;ratioP2;P2;SDS_P1;SDS_P2;PMS_P1;PMS_P2;Temp;Humidity;BMP_temperature;BMP_pressure;BME280_temperature;BME280_humidity;BME280_pressure;Samples;Min_cycle;Max_cycle;Signal;HPM_P1;HPM_P2
2022/08/12 00:44:40;;;;;;;;;;;;;;;23.44;44.44;101749.25;4994484;28;4530;-61
2022/08/12 00:47:08;;;;;;;;;;;;;;;23.43;44.58;101757.16;4997666;28;3997;-61
2022/08/12 00:49:51;;;;;;;;;;;;;;;23.39;44.09;101757.00;4995570;28;4343;-61
2022/08/12 00:52:17;;;;;;;;;;;;;;;23.37;44.30;101757.63;4994498;28;4210;-62
2022/08/12 00:54:49;;;;;;;;;;;;;;;23.33;44.15;101751.66;4996877;28;4536;-62
2022/08/12 00:57:16;;;;;;;;;;;;;;;23.32;43.75;101750.16;4998012;28;4125;-61
2022/08/12 00:59:46;;;;;;;;;;;;;;;23.33;43.67;101751.66;4995101;28;4273;-61
2022/08/12 01:02:14;;;;;;;;;;;;;;;23.31;43.55;101739.25;4992749;28;4185;-61
2022/08/12 01:12:58;;;;;;;;;;;;;;;23.48;44.61;101755.97;4996784;28;5148;-62
2022/08/12 01:15:44;;;;;;;;;;;;;;;23.51;45.15;101748.16;4995721;28;4225;-61
2022/08/12 01:18:12;;;;;;;;;;;;;;;23.51;44.87;101748.88;4995377;28;4329;-62
2022/08/12 01:20:39;;;;;;;;;;;;;;;23.50;45.40;101753.19;4993337;28;4522;-62
2022/08/12 01:23:30;;;;;;;;;;;;;;;23.53;45.62;101751.88;4995413;28;4604;-62
2022/08/12 01:25:56;;;;;;;;;;;;;;;23.52;45.50;101749.63;4998241;28;5451;-61
2022/08/12 01:28:23;;;;;;;;;;;;;;;23.52;45.86;101749.63;4992739;28;5458;-62
2022/08/12 01:30:49;;;;;;;;;;;;;;;23.53;45.87;101754.03;4994008;28;4273;-62
2022/08/12 01:33:16;;;;;;;;;;;;;;;23.53;46.06;101746.09;4994097;28;5516;-62
2022/08/12 01:35:44;;;;;;;;;;;;;;;23.53;46.18;101745.34;4996125;28;4183;-62
2022/08/12 01:38:23;;;;;;;;;;;;;;;23.53;46.42;101751.88;4997916;28;4191;-61
2022/08/12 01:40:55;;;;;;;;;;;;;;;23.53;46.15;101751.88;4998602;28;4283;-61
2022/08/12 01:43:23;;;;;;;;;;;;;;;23.53;46.53;101740.31;4996732;28;5216;-62
2022/08/12 01:45:51;;;;;;;;;;;;;;;23.53;46.38;101746.09;4996111;28;4256;-62
2022/08/12 01:48:44;;;;;;;;;;;;;;;23.54;46.55;101746.84;4997291;28;4066;-62
2022/08/12 01:51:20;;;;;;;;;;;;;;;23.54;46.87;101746.84;4969916;28;4149;-61
2022/08/12 01:54:08;;;;;;;;;;;;;;;23.53;46.72;101748.25;4997382;28;4125;-62
2022/08/12 01:56:40;;;;;;;;;;;;;;;23.54;47.04;101746.84;4996229;28;5361;-61
2022/08/12 02:01:51;;;;;;;;;;;;;;;23.54;47.12;101752.63;4998357;28;4161;-61
2022/08/12 02:13:31;;;;;;;;;;;;;;;23.53;47.42;101746.09;4992960;28;4322;-62
2022/08/12 02:16:35;;;;;;;;;;;;;;;23.52;47.29;101743.84;4996132;28;4133;-61
2022/08/12 02:19:05;;;;;;;;;;;;;;;23.52;47.44;101743.84;4996934;28;4504;-61
2022/08/12 02:22:02;;;;;;;;;;;;;;;23.52;47.63;101738.06;5001106;28;4439;-61
2022/08/12 02:24:30;;;;;;;;;;;;;;;23.52;47.90;101738.81;4999746;28;5206;-61
2022/08/12 02:26:57;;;;;;;;;;;;;;;23.52;47.72;101738.81;5000444;28;4186;-61
2022/08/12 02:29:23;;;;;;;;;;;;;;;23.50;48.03;101735.06;5000703;28;4074;-62
2022/08/12 02:31:51;;;;;;;;;;;;;;;23.49;48.21;101728.56;5000191;28;4260;-61
2022/08/12 02:34:17;;;;;;;;;;;;;;;23.48;48.27;101732.09;5000811;28;4519;-61
2022/08/12 02:36:44;;;;;;;;;;;;;;;23.47;48.10;101742.16;5001253;28;4089;-61
2022/08/12 02:39:14;;;;;;;;;;;;;;;23.48;48.12;101746.53;5001150;28;5244;-61
2022/08/12 02:41:41;;;;;;;;;;;;;;;23.47;47.94;101740.00;5000823;28;5300;-61
2022/08/12 02:44:08;;;;;;;;;;;;;;;23.47;47.94;101742.16;5001104;28;4152;-61
2022/08/12 02:46:35;;;;;;;;;;;;;;;23.47;47.63;101736.38;5000780;28;4634;-61
2022/08/12 02:49:08;;;;;;;;;;;;;;;23.46;47.87;101729.88;5000421;28;6293;-61
2022/08/12 02:51:38;;;;;;;;;;;;;;;23.46;47.75;101741.44;5001380;28;6388;-61
2022/08/12 02:54:04;;;;;;;;;;;;;;;23.45;47.76;101739.91;5001370;28;4058;-61
2022/08/12 02:56:40;;;;;;;;;;;;;;;23.45;47.39;101739.19;4999762;28;6573;-61
2022/08/12 02:59:09;;;;;;;;;;;;;;;23.45;47.55;101739.91;5000866;28;4127;-61
2022/08/12 03:01:36;;;;;;;;;;;;;;;23.44;47.43;101732.66;5000381;28;4143;-61
2022/08/12 03:04:18;;;;;;;;;;;;;;;23.44;47.22;101731.91;5005116;28;4210;-61
2022/08/12 03:07:05;;;;;;;;;;;;;;;23.45;47.32;101736.28;5000096;28;4225;-61
2022/08/12 03:09:32;;;;;;;;;;;;;;;23.42;47.09;101730.41;4999690;28;4336;-61
2022/08/12 03:12:19;;;;;;;;;;;;;;;23.42;47.09;101739.06;4999796;28;4332;-64
2022/08/12 03:14:48;;;;;;;;;;;;;;;23.42;47.37;101741.97;5000540;28;4231;-61
2022/08/12 03:17:15;;;;;;;;;;;;;;;23.42;47.20;101741.97;4999377;28;4230;-61
2022/08/12 03:19:44;;;;;;;;;;;;;;;23.40;47.27;101738.97;5000016;28;5580;-61
2022/08/12 03:22:30;;;;;;;;;;;;;;;23.42;47.40;101741.22;5000395;28;5408;-61
2022/08/12 03:24:58;;;;;;;;;;;;;;;23.40;47.41;101750.53;5000427;28;4424;-61
2022/08/12 03:27:25;;;;;;;;;;;;;;;23.40;47.28;101744.75;4999376;28;4022;-62
2022/08/12 03:29:51;;;;;;;;;;;;;;;23.40;47.01;101749.81;4999916;28;5479;-61
2022/08/12 03:32:18;;;;;;;;;;;;;;;23.39;47.18;101742.53;5003175;28;4211;-61
2022/08/12 03:35:06;;;;;;;;;;;;;;;23.39;47.05;101748.31;4998108;28;4096;-61
2022/08/12 03:37:32;;;;;;;;;;;;;;;23.37;47.11;101751.09;4998325;28;4067;-61
2022/08/12 03:39:58;;;;;;;;;;;;;;;23.38;47.33;101749.69;4997732;28;4092;-61
2022/08/12 03:42:39;;;;;;;;;;;;;;;23.37;47.32;101751.84;4997460;28;4228;-62
2022/08/12 04:01:56;;;;;;;;;;;;;;;23.35;47.03;101759.69;4997346;28;5303;-61
2022/08/12 04:04:32;;;;;;;;;;;;;;;23.34;46.99;101761.06;4997338;28;4159;-61
2022/08/12 04:07:09;;;;;;;;;;;;;;;23.34;46.87;101752.38;4996290;28;4300;-61
2022/08/12 04:09:37;;;;;;;;;;;;;;;23.33;46.98;101751.66;4995829;28;4101;-61
2022/08/12 04:14:51;;;;;;;;;;;;;;;23.33;46.68;101760.31;4999733;28;4136;-61
2022/08/12 04:17:17;;;;;;;;;;;;;;;23.32;46.60;101758.84;4997478;28;4184;-61
2022/08/12 04:19:47;;;;;;;;;;;;;;;23.32;46.66;101755.94;4997102;28;4202;-61
2022/08/12 04:22:13;;;;;;;;;;;;;;;23.32;46.85;101760.94;4998714;28;4101;-61
2022/08/12 04:24:40;;;;;;;;;;;;;;;23.31;46.67;101754.44;4995674;28;4013;-61
2022/08/12 04:27:07;;;;;;;;;;;;;;;23.31;46.61;101753.69;4996527;28;4168;-61
2022/08/12 04:29:34;;;;;;;;;;;;;;;23.30;46.85;101752.94;4997603;28;4029;-61
2022/08/12 04:32:20;;;;;;;;;;;;;;;23.29;46.98;101757.22;4998010;28;5574;-61
2022/08/12 04:34:46;;;;;;;;;;;;;;;23.30;46.55;101758.72;4996838;28;4240;-61
2022/08/12 04:37:14;;;;;;;;;;;;;;;23.30;46.87;101758.72;4997798;28;4233;-61
2022/08/12 04:39:41;;;;;;;;;;;;;;;23.30;46.92;101764.50;4995500;28;5419;-61
2022/08/12 04:42:07;;;;;;;;;;;;;;;23.30;46.83;101764.50;4995566;28;5686;-61
2022/08/12 04:44:34;;;;;;;;;;;;;;;23.30;46.88;101746.44;4995387;28;4339;-61
2022/08/12 04:47:00;;;;;;;;;;;;;;;23.29;46.66;101760.13;4997294;28;4029;-61
2022/08/12 04:49:27;;;;;;;;;;;;;;;23.28;46.60;101758.63;4995185;28;4507;-61
2022/08/12 04:51:54;;;;;;;;;;;;;;;23.28;46.63;101758.63;4999277;28;4241;-61
2022/08/12 04:54:25;;;;;;;;;;;;;;;23.26;46.78;101761.41;4997269;28;5603;-62
2022/08/12 04:56:52;;;;;;;;;;;;;;;23.27;46.99;101759.28;4996009;28;4083;-61
2022/08/12 04:59:30;;;;;;;;;;;;;;;23.28;47.02;101760.78;4997979;28;4172;-61
2022/08/12 05:02:12;;;;;;;;;;;;;;;23.27;46.84;101760.00;4996081;28;4404;-61
2022/08/12 05:04:48;;;;;;;;;;;;;;;23.27;46.76;101759.28;4995776;28;4181;-61
2022/08/12 05:07:15;;;;;;;;;;;;;;;23.27;47.01;101762.16;4998348;28;5234;-61
2022/08/12 05:09:41;;;;;;;;;;;;;;;23.27;46.85;101753.50;4995504;28;4153;-61
2022/08/12 05:12:33;;;;;;;;;;;;;;;23.26;46.90;101758.53;4996884;28;4298;-61
2022/08/12 05:15:00;;;;;;;;;;;;;;;23.25;47.17;101757.03;4999318;28;4208;-60
2022/08/12 05:17:26;;;;;;;;;;;;;;;23.25;46.88;101762.81;4997667;28;4151;-61
2022/08/12 05:19:53;;;;;;;;;;;;;;;23.26;47.25;101758.53;4998045;28;4133;-61
2022/08/12 05:22:22;;;;;;;;;;;;;;;23.27;47.07;101762.91;4998452;28;4160;-61
2022/08/12 05:24:48;;;;;;;;;;;;;;;23.27;47.36;101768.69;4996586;28;4240;-61
2022/08/12 05:27:16;;;;;;;;;;;;;;;23.26;47.36;101764.31;4997691;28;4301;-61
2022/08/12 05:29:48;;;;;;;;;;;;;;;23.27;47.49;101768.69;4997344;28;4515;-61
2022/08/12 05:32:34;;;;;;;;;;;;;;;23.28;47.61;101761.53;4995148;28;4280;-61
2022/08/12 05:35:05;;;;;;;;;;;;;;;23.28;47.76;101769.44;4997233;28;4125;-61
2022/08/12 05:37:35;;;;;;;;;;;;;;;23.28;47.56;101773.09;4995504;28;4151;-61
2022/08/12 05:40:02;;;;;;;;;;;;;;;23.27;47.67;101771.56;4998249;28;3978;-61
2022/08/12 05:42:36;;;;;;;;;;;;;;;23.28;48.01;101770.19;4996910;28;5378;-60
2022/08/12 05:45:02;;;;;;;;;;;;;;;23.28;47.68;101769.44;4997094;28;4293;-61
2022/08/12 05:47:28;;;;;;;;;;;;;;;23.29;47.84;101768.03;4994893;28;4080;-61
2022/08/12 05:50:15;;;;;;;;;;;;;;;23.27;48.04;101768.69;4995504;28;4164;-61
2022/08/12 05:52:41;;;;;;;;;;;;;;;23.29;47.94;101779.59;4996988;28;5730;-61
2022/08/12 05:55:09;;;;;;;;;;;;;;;23.29;48.37;101771.66;4996738;28;4235;-61
2022/08/12 05:57:36;;;;;;;;;;;;;;;23.29;48.32;101776.72;4999277;28;5242;-61
2022/08/12 06:00:03;;;;;;;;;;;;;;;23.29;48.38;101779.59;5001574;28;4371;-61
2022/08/12 06:02:36;;;;;;;;;;;;;;;23.28;48.33;101773.09;5000287;28;4630;-61
2022/08/12 06:05:05;;;;;;;;;;;;;;;23.30;48.17;101781.84;5000651;28;5402;-61
2022/08/12 06:07:33;;;;;;;;;;;;;;;23.29;48.12;101794.78;5000035;28;4226;-61
2022/08/12 06:10:19;;;;;;;;;;;;;;;23.29;48.10;101791.91;4999104;28;4251;-62
2022/08/12 06:12:58;;;;;;;;;;;;;;;23.30;48.19;101787.63;4998704;28;4234;-61
2022/08/12 06:15:25;;;;;;;;;;;;;;;23.30;48.37;101787.63;5000792;28;4198;-61
2022/08/12 06:17:52;;;;;;;;;;;;;;;23.30;48.40;101787.63;5000022;28;4697;-61
2022/08/12 06:20:18;;;;;;;;;;;;;;;23.30;48.03;101793.41;5000079;28;4192;-61
2022/08/12 06:22:55;;;;;;;;;;;;;;;23.31;48.34;101789.13;5000637;28;4206;-61
2022/08/12 06:25:21;;;;;;;;;;;;;;;23.30;48.13;101787.63;4999960;28;4645;-61
2022/08/12 06:27:48;;;;;;;;;;;;;;;23.31;48.42;101792.00;4999470;28;4394;-61
2022/08/12 06:30:34;;;;;;;;;;;;;;;23.30;48.37;101790.53;5000212;28;4198;-61
2022/08/12 06:33:05;;;;;;;;;;;;;;;23.30;48.52;101793.41;4999475;28;4348;-61
2022/08/12 06:35:50;;;;;;;;;;;;;;;23.30;48.26;101792.66;4999375;28;4056;-61
2022/08/12 06:38:24;;;;;;;;;;;;;;;23.30;48.60;101793.41;4998259;28;4350;-61
2022/08/12 06:43:39;;;;;;;;;;;;;;;23.29;48.60;101789.00;4998830;28;5137;-61
2022/08/12 06:46:25;;;;;;;;;;;;;;;23.29;48.63;101786.13;4999625;28;4696;-61
2022/08/12 06:48:56;;;;;;;;;;;;;;;23.30;48.56;101784.75;4999514;28;4227;-61
2022/08/12 06:51:22;;;;;;;;;;;;;;;23.30;48.45;101793.41;5000515;28;4240;-61
2022/08/12 06:53:49;;;;;;;;;;;;;;;23.29;48.47;101797.69;4999862;28;4204;-61
2022/08/12 06:56:15;;;;;;;;;;;;;;;23.30;48.47;101781.84;4999627;28;4161;-61
2022/08/12 06:58:43;;;;;;;;;;;;;;;23.31;48.69;101791.25;4999124;28;4517;-61
2022/08/12 07:01:09;;;;;;;;;;;;;;;23.30;48.74;101787.63;5003224;28;4334;-61
2022/08/12 07:03:37;;;;;;;;;;;;;;;23.31;48.50;101776.81;4998658;28;4153;-61
2022/08/12 07:06:04;;;;;;;;;;;;;;;23.31;48.73;101782.59;4998877;28;4233;-61
2022/08/12 07:08:31;;;;;;;;;;;;;;;23.31;48.54;101783.34;4998623;28;4156;-61
2022/08/12 07:10:58;;;;;;;;;;;;;;;23.30;48.46;101784.75;4999272;28;4448;-60
2022/08/12 07:13:29;;;;;;;;;;;;;;;23.30;48.58;101776.06;4998129;28;4221;-61
2022/08/12 07:15:57;;;;;;;;;;;;;;;23.30;48.52;101781.84;4998558;28;4270;-61
2022/08/12 07:18:27;;;;;;;;;;;;;;;23.30;48.98;101786.88;4999404;28;4265;-61
2022/08/12 07:20:54;;;;;;;;;;;;;;;23.30;48.67;101784.75;4998348;28;4225;-61
2022/08/12 07:23:20;;;;;;;;;;;;;;;23.30;48.55;101784.75;5000294;28;4374;-62
2022/08/12 07:25:46;;;;;;;;;;;;;;;23.31;48.85;101783.34;4998609;28;4565;-61
2022/08/12 07:28:17;;;;;;;;;;;;;;;23.32;48.58;101784.06;5000046;28;4195;-61
2022/08/12 07:30:44;;;;;;;;;;;;;;;23.32;48.85;101790.63;4983111;28;4283;-62
2022/08/12 07:33:10;;;;;;;;;;;;;;;23.33;48.83;101791.38;5003497;28;5653;-61
2022/08/12 07:35:49;;;;;;;;;;;;;;;23.32;48.89;101781.19;4998309;28;5270;-61
2022/08/12 07:38:30;;;;;;;;;;;;;;;23.31;49.00;101783.34;5000351;28;4068;-61
2022/08/12 07:41:01;;;;;;;;;;;;;;;23.33;48.65;101791.38;4997977;28;4753;-61
2022/08/12 07:43:28;;;;;;;;;;;;;;;23.33;48.71;101791.38;4998663;28;4184;-61
2022/08/12 07:45:55;;;;;;;;;;;;;;;23.33;48.72;101792.09;4997772;28;4477;-61
2022/08/12 07:48:21;;;;;;;;;;;;;;;23.33;48.67;101788.47;4998073;28;4454;-61
2022/08/12 07:50:49;;;;;;;;;;;;;;;23.33;48.93;101780.53;4999495;28;4139;-61
2022/08/12 07:53:15;;;;;;;;;;;;;;;23.34;48.92;101782.06;4999222;28;4331;-61
2022/08/12 07:55:42;;;;;;;;;;;;;;;23.32;49.00;101781.94;4997444;28;4184;-61
2022/08/12 07:58:08;;;;;;;;;;;;;;;23.34;48.76;101784.19;4998145;28;5317;-61
2022/08/12 08:00:35;;;;;;;;;;;;;;;23.33;48.79;101780.53;4998599;28;4172;-61
2022/08/12 08:03:02;;;;;;;;;;;;;;;23.34;49.01;101790.72;4997974;28;4926;-61
2022/08/12 08:05:35;;;;;;;;;;;;;;;23.33;49.09;101780.53;4998756;28;4213;-61
2022/08/12 08:08:11;;;;;;;;;;;;;;;23.34;48.79;101781.28;4998800;28;4203;-61
2022/08/12 08:10:37;;;;;;;;;;;;;;;23.33;49.06;101780.53;4997553;28;4246;-61
2022/08/12 08:13:05;;;;;;;;;;;;;;;23.35;49.13;101783.53;4997821;28;4259;-61
2022/08/12 08:15:34;;;;;;;;;;;;;;;23.35;48.98;101783.53;4999276;28;5393;-61
2022/08/12 08:18:22;;;;;;;;;;;;;;;23.34;48.87;101782.06;4995658;28;4521;-61
2022/08/12 08:20:52;;;;;;;;;;;;;;;23.34;48.92;101782.06;4998601;28;5148;-61
2022/08/12 08:23:19;;;;;;;;;;;;;;;23.35;48.85;101779.91;4998361;28;6273;-64
2022/08/12 08:25:46;;;;;;;;;;;;;;;23.33;48.86;101780.53;4999547;28;4250;-61
2022/08/12 08:28:15;;;;;;;;;;;;;;;23.35;49.15;101777.75;4999098;28;5288;-61
2022/08/12 08:30:42;;;;;;;;;;;;;;;23.35;48.96;101777.75;4998698;28;5463;-61
2022/08/12 08:33:09;;;;;;;;;;;;;;;23.35;49.19;101780.66;4998499;28;5363;-61
2022/08/12 08:35:50;;;;;;;;;;;;;;;23.35;49.14;101774.88;4997581;28;4344;-60
2022/08/12 08:38:19;;;;;;;;;;;;;;;23.35;49.11;101777.75;4996388;28;4138;-62
2022/08/12 08:44:05;;;;;;;;;;;;;;;23.35;48.83;101780.66;4997033;28;4203;-60
2022/08/12 08:46:36;;;;;;;;;;;;;;;23.36;48.91;101779.25;4996280;28;4063;-60
2022/08/12 08:49:03;;;;;;;;;;;;;;;23.36;49.12;101773.47;4997341;28;4185;-61
2022/08/12 08:51:30;;;;;;;;;;;;;;;23.36;49.20;101778.50;4996848;28;4203;-61
2022/08/12 08:53:56;;;;;;;;;;;;;;;23.37;49.02;101780.75;4997256;28;4229;-61
2022/08/12 08:56:23;;;;;;;;;;;;;;;23.36;48.95;101779.25;4996462;28;4265;-61
2022/08/12 08:58:49;;;;;;;;;;;;;;;23.36;49.16;101782.13;4999174;28;4350;-61
2022/08/12 09:01:21;;;;;;;;;;;;;;;23.37;49.23;101777.13;4996806;28;4535;-61
2022/08/12 09:03:47;;;;;;;;;;;;;;;23.37;49.19;101771.34;4995783;28;4020;-61
2022/08/12 09:06:34;;;;;;;;;;;;;;;23.36;49.24;101764.78;4995287;28;4227;-61
2022/08/12 09:09:04;;;;;;;;;;;;;;;23.35;49.08;101771.97;4997466;28;4505;-61
2022/08/12 09:14:41;;;;;;;;;;;;;;;23.38;49.29;101775.72;4996775;28;4113;-61
2022/08/12 09:17:12;;;;;;;;;;;;;;;23.37;49.22;101769.19;4997481;28;4252;-61
2022/08/12 09:19:47;;;;;;;;;;;;;;;23.37;49.05;101769.19;4996414;28;5646;-61
2022/08/12 09:22:21;;;;;;;;;;;;;;;23.37;49.21;101769.19;4996750;28;5458;-62
2022/08/12 09:24:53;;;;;;;;;;;;;;;23.38;48.93;101770.66;4997033;28;5523;-61
2022/08/12 09:27:20;;;;;;;;;;;;;;;23.37;48.89;101762.66;4998041;28;4231;-61
2022/08/12 09:30:06;;;;;;;;;;;;;;;23.38;49.20;101759.09;4999774;28;4191;-61
2022/08/12 09:32:41;;;;;;;;;;;;;;;23.39;49.07;101766.41;5001444;28;5249;-61
2022/08/12 09:35:32;;;;;;;;;;;;;;;23.37;49.05;101760.53;5001505;28;5279;-61
2022/08/12 09:38:10;;;;;;;;;;;;;;;23.38;48.88;101762.00;5000679;28;5428;-61
2022/08/12 09:40:56;;;;;;;;;;;;;;;23.39;48.87;101765.66;5000576;28;4076;-61
2022/08/12 09:46:30;;;;;;;;;;;;;;;23.39;48.83;101760.63;5002172;28;4074;-61
2022/08/12 09:49:00;;;;;;;;;;;;;;;23.38;48.80;101741.03;5001663;28;4256;-60
2022/08/12 09:51:32;;;;;;;;;;;;;;;23.39;49.04;101754.84;4999126;28;4231;-61
2022/08/12 09:54:11;;;;;;;;;;;;;;;23.39;48.92;101748.31;5000454;28;5320;-61
2022/08/12 09:56:57;;;;;;;;;;;;;;;23.40;48.76;101749.81;5000964;28;7230;-61
2022/08/12 09:59:43;;;;;;;;;;;;;;;23.40;48.95;101738.97;5000422;28;5202;-61
2022/08/12 10:02:37;;;;;;;;;;;;;;;23.39;48.80;101731.72;5001543;28;4177;-61
2022/08/12 10:05:13;;;;;;;;;;;;;;;23.40;48.91;101732.47;4999393;28;5672;-61
2022/08/12 10:07:45;;;;;;;;;;;;;;;23.41;48.96;101731.81;5000053;28;4173;-61
2022/08/12 10:10:12;;;;;;;;;;;;;;;23.40;48.74;101721.63;4999821;28;4108;-61
2022/08/12 10:16:02;;;;;;;;;;;;;;;23.40;48.87;101707.19;4983643;28;4463;-61
2022/08/12 10:18:31;;;;;;;;;;;;;;;23.40;48.91;101710.06;5000986;28;5424;-61
2022/08/12 10:21:03;;;;;;;;;;;;;;;23.42;48.87;101715.22;4999182;28;4290;-61
2022/08/12 10:23:30;;;;;;;;;;;;;;;23.42;48.91;101703.66;5001566;28;4205;-61
2022/08/12 10:32:15;;;;;;;;;;;;;;;23.42;48.77;101701.50;5001023;28;4066;-61
2022/08/12 10:34:47;;;;;;;;;;;;;;;23.43;48.69;101696.47;5000464;28;4189;-61
2022/08/12 10:37:22;;;;;;;;;;;;;;;23.43;48.74;101696.47;4997028;28;5124;-61
2022/08/12 10:40:10;;;;;;;;;;;;;;;23.44;48.36;101691.44;5000419;28;4208;-61
2022/08/12 10:45:30;;;;;;;;;;;;;;;23.42;48.58;101669.69;4998887;28;4301;-61
2022/08/12 10:47:57;;;;;;;;;;;;;;;23.42;48.53;101677.63;5000365;28;4456;-61
2022/08/12 10:50:43;;;;;;;;;;;;;;;23.43;48.41;101670.44;5000575;28;4169;-61
2022/08/12 10:53:33;;;;;;;;;;;;;;;23.44;48.17;101685.66;4999288;28;4208;-61
2022/08/12 10:56:17;;;;;;;;;;;;;;;23.45;48.21;101675.59;4998677;28;4247;-61
2022/08/12 10:58:43;;;;;;;;;;;;;;;23.45;48.22;101670.53;4998489;28;4165;-61
2022/08/12 11:01:12;;;;;;;;;;;;;;;23.46;48.34;101671.31;4998949;28;5303;-61
2022/08/12 11:04:12;;;;;;;;;;;;;;;23.45;48.25;101669.81;4998795;28;4189;-61
2022/08/12 11:07:06;;;;;;;;;;;;;;;23.45;48.05;101670.53;4999575;28;4271;-61
2022/08/12 11:09:52;;;;;;;;;;;;;;;23.46;48.07;101668.41;4999729;28;4217;-61
2022/08/12 11:12:28;;;;;;;;;;;;;;;23.45;47.96;101664.03;4998972;28;6660;-61
2022/08/12 11:15:14;;;;;;;;;;;;;;;23.45;47.77;101670.53;4998831;28;4250;-61
2022/08/12 11:17:49;;;;;;;;;;;;;;;23.46;47.96;101671.31;4997781;28;4223;-61
2022/08/12 11:20:26;;;;;;;;;;;;;;;23.46;47.74;101653.97;4999347;28;4312;-61
2022/08/12 11:23:01;;;;;;;;;;;;;;;23.46;47.83;101666.28;4997051;28;5504;-61
2022/08/12 11:25:30;;;;;;;;;;;;;;;23.46;47.72;101659.75;5000425;28;4321;-61
2022/08/12 11:28:16;;;;;;;;;;;;;;;23.45;47.71;101664.03;4999814;28;6319;-60
2022/08/12 11:30:58;;;;;;;;;;;;;;;23.46;47.68;101653.97;4999327;28;5404;-61
2022/08/12 11:33:25;;;;;;;;;;;;;;;23.46;47.49;101653.97;5000190;28;4140;-61
2022/08/12 11:36:16;;;;;;;;;;;;;;;23.47;47.47;101652.56;4997470;28;4128;-61
2022/08/12 11:38:47;;;;;;;;;;;;;;;23.47;47.33;101643.88;5005932;28;4207;-60
2022/08/12 11:41:17;;;;;;;;;;;;;;;23.47;47.15;101643.88;5000036;28;4232;-60
2022/08/12 11:43:59;;;;;;;;;;;;;;;23.46;47.34;101636.63;4992995;28;5554;-60
2022/08/12 11:46:45;;;;;;;;;;;;;;;23.47;47.27;101641.00;4997600;28;4826;-60
2022/08/12 11:49:48;;;;;;;;;;;;;;;23.47;47.04;101643.88;5001139;28;4476;-61
2022/08/12 11:53:02;;;;;;;;;;;;;;;23.47;47.02;101632.31;4994106;28;4353;-60
2022/08/12 11:55:29;;;;;;;;;;;;;;;23.45;47.19;101630.06;4997245;28;4281;-60
2022/08/12 11:57:55;;;;;;;;;;;;;;;23.47;47.11;101638.09;4996536;28;4246;-60
2022/08/12 12:00:35;;;;;;;;;;;;;;;23.47;46.93;101630.16;4997548;28;4257;-60
2022/08/12 12:03:21;;;;;;;;;;;;;;;23.46;47.29;101631.59;4997931;28;4246;-60
2022/08/12 12:05:48;;;;;;;;;;;;;;;23.48;47.08;101622.25;4998094;28;4613;-60
2022/08/12 12:08:22;;;;;;;;;;;;;;;23.48;47.01;101622.25;4998003;28;4453;-60
2022/08/12 12:11:08;;;;;;;;;;;;;;;23.50;47.02;101616.56;5000276;28;4272;-62
2022/08/12 12:13:40;;;;;;;;;;;;;;;23.51;47.12;101626.72;4997079;28;5397;-63
2022/08/12 12:16:27;;;;;;;;;;;;;;;23.50;47.18;101620.22;4999120;28;4204;-63
2022/08/12 12:18:55;;;;;;;;;;;;;;;23.49;47.31;101624.47;4997412;28;4285;-62
2022/08/12 12:21:22;;;;;;;;;;;;;;;23.49;47.33;101629.53;4996970;28;4247;-62
2022/08/12 12:24:08;;;;;;;;;;;;;;;23.49;47.33;101621.59;4996231;28;4266;-62
2022/08/12 12:26:35;;;;;;;;;;;;;;;23.48;47.38;101614.34;4997811;28;4205;-62
2022/08/12 12:29:03;;;;;;;;;;;;;;;23.50;47.36;101620.22;4997353;28;4095;-62
2022/08/12 12:31:54;;;;;;;;;;;;;;;23.49;47.36;101612.19;5004183;28;4004;-62
2022/08/12 12:34:40;;;;;;;;;;;;;;;23.50;47.15;101610.78;5005665;28;4483;-63
2022/08/12 12:37:26;;;;;;;;;;;;;;;23.50;47.54;101613.66;4997290;28;4248;-63
2022/08/12 12:40:15;;;;;;;;;;;;;;;23.51;47.52;101601.44;4997752;28;4165;-62
2022/08/12 12:42:42;;;;;;;;;;;;;;;23.51;47.43;101604.34;4996613;28;4960;-62
2022/08/12 12:45:23;;;;;;;;;;;;;;;23.51;47.50;101604.34;4998378;28;4220;-63
2022/08/12 12:48:04;;;;;;;;;;;;;;;23.51;47.45;101603.59;4998413;28;4251;-63
2022/08/12 12:50:32;;;;;;;;;;;;;;;23.52;47.74;101593.53;4997570;28;4162;-62
2022/08/12 12:53:08;;;;;;;;;;;;;;;23.51;47.73;101598.56;4996003;28;4381;-62
2022/08/12 12:55:55;;;;;;;;;;;;;;;23.52;47.72;101599.31;4997932;28;4221;-62
2022/08/12 12:58:23;;;;;;;;;;;;;;;23.51;47.79;101598.56;5002144;28;4079;-63
2022/08/12 13:00:49;;;;;;;;;;;;;;;23.52;47.51;101605.81;4998510;28;4217;-63
2022/08/12 13:03:22;;;;;;;;;;;;;;;23.52;47.61;101602.19;4990575;28;4024;-63
2022/08/12 13:05:59;;;;;;;;;;;;;;;23.54;47.92;101596.50;4997463;28;4396;-62
2022/08/12 13:08:58;;;;;;;;;;;;;;;23.52;47.74;101600.03;4999174;28;4167;-63
2022/08/12 13:11:28;;;;;;;;;;;;;;;23.52;47.76;101596.41;4989513;28;5273;-62
2022/08/12 13:14:14;;;;;;;;;;;;;;;23.53;48.07;101595.03;4996564;28;4302;-62
2022/08/12 13:16:54;;;;;;;;;;;;;;;23.54;47.88;101585.69;4991363;28;4069;-63
2022/08/12 13:19:22;;;;;;;;;;;;;;;23.54;47.85;101584.94;4996822;28;4192;-63
2022/08/12 13:22:19;;;;;;;;;;;;;;;23.54;48.03;101599.41;4999617;28;4160;-63
2022/08/12 13:24:52;;;;;;;;;;;;;;;23.53;48.17;101577.69;4996640;28;4172;-63
2022/08/12 13:27:22;;;;;;;;;;;;;;;23.54;48.19;101590.72;4997643;28;4263;-63
2022/08/12 13:29:56;;;;;;;;;;;;;;;23.54;48.15;101590.72;4998162;28;4337;-64
2022/08/12 13:32:29;;;;;;;;;;;;;;;23.55;48.21;101587.19;4998482;28;4157;-63
2022/08/12 13:35:06;;;;;;;;;;;;;;;23.57;48.12;101583.63;4997630;28;4241;-64
2022/08/12 13:37:53;;;;;;;;;;;;;;;23.55;47.83;101583.56;4998559;28;4280;-63
2022/08/12 13:40:20;;;;;;;;;;;;;;;23.56;48.15;101582.16;4997978;28;4178;-64
2022/08/12 13:42:52;;;;;;;;;;;;;;;23.56;48.04;101573.47;4997895;28;4239;-63
2022/08/12 13:45:18;;;;;;;;;;;;;;;23.55;48.00;101569.84;4999986;28;4024;-63
2022/08/12 13:47:54;;;;;;;;;;;;;;;23.56;48.10;101565.53;4997340;28;4258;-64
2022/08/12 13:50:42;;;;;;;;;;;;;;;23.56;48.19;101580.00;4997813;28;4186;-64
2022/08/12 13:53:15;;;;;;;;;;;;;;;23.57;48.26;101575.72;4998832;28;5289;-63
2022/08/12 13:56:02;;;;;;;;;;;;;;;23.58;48.23;101567.78;4996815;28;4213;-63
2022/08/12 13:58:29;;;;;;;;;;;;;;;23.58;48.24;101562.00;4997162;28;4195;-63
2022/08/12 14:00:56;;;;;;;;;;;;;;;23.58;48.39;101559.09;4999021;28;5297;-64
2022/08/12 14:03:23;;;;;;;;;;;;;;;23.57;48.41;101546.81;4998194;28;5281;-64
2022/08/12 14:05:58;;;;;;;;;;;;;;;23.59;48.45;101551.91;4997444;28;4244;-63
2022/08/12 14:08:24;;;;;;;;;;;;;;;23.59;48.60;101552.69;4998325;28;5517;-64
2022/08/12 14:10:59;;;;;;;;;;;;;;;23.59;48.49;101563.47;4998493;28;5269;-63
2022/08/12 14:13:26;;;;;;;;;;;;;;;23.59;48.67;101560.59;4997524;28;5422;-64
2022/08/12 14:16:15;;;;;;;;;;;;;;;23.59;48.71;101555.56;4998265;28;4220;-63
2022/08/12 14:19:02;;;;;;;;;;;;;;;23.59;48.56;101557.69;4999851;28;4139;-64
2022/08/12 14:21:31;;;;;;;;;;;;;;;23.61;48.53;101560.69;5001035;28;4031;-63
2022/08/12 14:24:17;;;;;;;;;;;;;;;23.61;48.80;101563.56;5001221;28;4201;-63
2022/08/12 14:26:52;;;;;;;;;;;;;;;23.60;48.58;101559.19;4999035;28;4168;-63
2022/08/12 14:29:20;;;;;;;;;;;;;;;23.60;48.91;101553.41;5000144;28;4183;-65
2022/08/12 14:32:06;;;;;;;;;;;;;;;23.61;48.74;101561.41;5001787;28;5118;-65
2022/08/12 14:34:41;;;;;;;;;;;;;;;23.61;49.02;101554.91;4999302;28;4328;-62
2022/08/12 14:37:09;;;;;;;;;;;;;;;23.62;48.67;101550.63;5000401;28;5351;-62
2022/08/12 14:39:55;;;;;;;;;;;;;;;23.63;48.85;101555.00;5001069;28;4191;-62
2022/08/12 14:42:22;;;;;;;;;;;;;;;23.61;48.75;101540.44;5000902;28;5512;-62
2022/08/12 14:44:51;;;;;;;;;;;;;;;23.61;48.94;101543.34;4999500;28;4266;-62
2022/08/12 14:47:26;;;;;;;;;;;;;;;23.62;49.02;101539.06;4999260;28;4251;-62
2022/08/12 14:49:54;;;;;;;;;;;;;;;23.63;49.01;101546.31;5000228;28;4070;-63
2022/08/12 14:52:42;;;;;;;;;;;;;;;23.61;49.15;101538.28;4996032;28;4269;-63
2022/08/12 14:55:32;;;;;;;;;;;;;;;23.64;49.14;101533.38;5000489;28;4232;-59
2022/08/12 14:58:18;;;;;;;;;;;;;;;23.67;49.55;101537.09;4999354;28;5387;-63
2022/08/12 15:03:32;;;;;;;;;;;;;;;23.66;49.58;101521.84;4988158;28;4114;-63
2022/08/12 15:06:19;;;;;;;;;;;;;;;23.63;49.44;101526.81;5009585;28;4089;-63
2022/08/12 15:09:05;;;;;;;;;;;;;;;23.67;49.57;101523.38;5001476;28;4220;-63
2022/08/12 15:11:32;;;;;;;;;;;;;;;23.67;49.36;101511.81;5002080;28;4204;-63